Bookmark and Share
Track history (hours):
 

Barhom II

Last reported at 2014-Apr-24 22:04 UTC. Time now 2014-Apr-25 05:48 UTC.
Position N 39°08' E 005°06'.

Length 83 m; draft 4.6 m.

Type: Ship (hazmat cat A). MMSI: 677043400.

NotesDate/timePositionNaut miles runAvg speedWind from/ knotsBaromVisibWave heightAir tempDewpointWater temp
2014-Apr-24 22:04N 39°08' E 005°06'510.3
2014-Apr-24 21:33N 39°05' E 005°11'1010.0
2014-Apr-24 20:33N 38°59' E 005°22'9 9.4
2014-Apr-24 19:33N 38°54' E 005°32'9 8.9
2014-Apr-24 18:33N 38°49' E 005°42'9 8.9
2014-Apr-24 17:33N 38°44' E 005°51'9 8.9
2014-Apr-24 16:33N 38°39' E 006°01'267 8.3
2014-Apr-23 08:33N 37°09' E 011°19'9 8.7
2014-Apr-23 07:34N 37°05' E 011°28'8 8.5
2014-Apr-23 06:34N 36°59' E 011°36'9 8.8
2014-Apr-23 05:33N 36°51' E 011°41'9 9.2
2014-Apr-23 04:33N 36°42' E 011°45'9 9.3
2014-Apr-23 03:34N 36°33' E 011°48'9 9.3
2014-Apr-23 02:33N 36°24' E 011°51'9 8.9
2014-Apr-23 01:33N 36°16' E 011°54'9 8.6
2014-Apr-23 00:33N 36°08' E 011°56'9 9.1
2014-Apr-22 23:31N 35°58' E 011°60'11 9.3
2014-Apr-22 22:20N 35°48' E 012°03'89 9.0
2014-Apr-22 12:33N 34°35' E 013°04'9910.0
2014-Apr-22 02:33N 33°19' E 014°22'1010.2
2014-Apr-22 01:33N 33°11' E 014°30'61 7.4
2014-Apr-21 17:15N 32°22' E 015°13'0 0.0
2014-Apr-21 16:31N 32°22' E 015°13'0 0.0
2014-Apr-21 15:21N 32°22' E 015°13'0 0.0
2014-Apr-21 14:13N 32°22' E 015°13'0 0.0
2014-Apr-21 13:33N 32°22' E 015°13'144 3.8
2014-Apr-19 23:16N 34°10' E 013°19'7 9.6
2014-Apr-19 22:33N 34°14' E 013°13'9 9.5
2014-Apr-19 21:34N 34°22' E 013°06'9 9.4
2014-Apr-19 20:33N 34°30' E 012°59'9 9.5
2014-Apr-19 19:33N 34°37' E 012°53'10 9.6
2014-Apr-19 18:33N 34°45' E 012°46'10 9.6
2014-Apr-19 17:33N 34°53' E 012°39'10 9.8
2014-Apr-19 16:33N 35°01' E 012°33'10 9.6
2014-Apr-19 15:34N 35°09' E 012°26'10 9.7
2014-Apr-19 14:33N 35°17' E 012°19'10 9.8
2014-Apr-19 13:33N 35°25' E 012°13'19 9.7
2014-Apr-19 11:34N 35°42' E 012°02'10 9.6
2014-Apr-19 10:33N 35°52' E 011°60'10 9.8
2014-Apr-19 09:33N 36°02' E 011°58'10 9.9
2014-Apr-19 08:33N 36°11' E 011°56'10 9.7
2014-Apr-19 07:33N 36°21' E 011°54'10 9.8
2014-Apr-19 06:33N 36°30' E 011°51'10 9.9
2014-Apr-19 05:34N 36°40' E 011°48'10 9.9
2014-Apr-19 04:33N 36°49' E 011°43'10 9.8
2014-Apr-19 03:33N 36°57' E 011°36'1010.3
2014-Apr-19 02:34N 37°05' E 011°28'1010.4
2014-Apr-19 01:33N 37°10' E 011°16'39610.1
2014-Apr-17 10:27N 41°18' E 004°38'9 9.4
2014-Apr-17 09:29N 41°26' E 004°31'10 9.7
2014-Apr-17 08:30N 41°35' E 004°26'1010.3
2014-Apr-17 07:33N 41°44' E 004°22'10 9.7
2014-Apr-17 06:32N 41°53' E 004°17'9 9.5
2014-Apr-17 05:33N 42°02' E 004°12'4010.1
2014-Apr-17 01:33N 42°41' E 003°58'10 9.6
2014-Apr-17 00:32N 42°50' E 003°55'9 9.6
2014-Apr-16 23:33N 42°59' E 003°52'11 9.1
2014-Apr-16 22:18N 43°10' E 003°48'810.1
2014-Apr-16 21:34N 43°17' E 003°45'7 6.6
2014-Apr-16 20:31N 43°24' E 003°42'0 0.1
2014-Apr-16 19:22N 43°24' E 003°42'0 0.0
2014-Apr-16 18:05N 43°24' E 003°42'0 0.0
2014-Apr-16 17:33N 43°24' E 003°42'0 0.0
2014-Apr-16 16:12N 43°24' E 003°42'0 0.0
2014-Apr-16 15:28N 43°24' E 003°42'0 0.0
2014-Apr-16 14:27N 43°24' E 003°42'0 0.0
2014-Apr-16 13:25N 43°24' E 003°42'0 0.0
2014-Apr-16 12:23N 43°24' E 003°42'0 0.0
2014-Apr-16 11:32N 43°24' E 003°42'4 4.0
2014-Apr-16 10:31N 43°20' E 003°43'1010.4
2014-Apr-16 09:32N 43°10' E 003°41'11 9.8
2014-Apr-16 08:25N 42°59' E 003°38'910.6
2014-Apr-16 07:33N 42°51' E 003°33'47 7.9
2014-Apr-16 01:32N 42°03' E 003°32'7 7.0
2014-Apr-16 00:32N 41°57' E 003°34'8 8.0
2014-Apr-15 23:33N 41°49' E 003°35'19 9.3
2014-Apr-15 21:33N 41°30' E 003°37'9 9.4
2014-Apr-15 20:33N 41°21' E 003°38'10 9.9
2014-Apr-15 19:32N 41°11' E 003°38'12 8.8
2014-Apr-15 18:09N 40°59' E 003°38'6 9.6
2014-Apr-15 17:33N 40°53' E 003°38'14 9.2
2014-Apr-15 16:04N 40°39' E 003°39'5 9.3
2014-Apr-15 15:33N 40°34' E 003°39'39 7.9
2014-Apr-15 10:34N 39°55' E 003°40'2110.4
2014-Apr-15 08:32N 39°34' E 003°39'2110.4
2014-Apr-15 06:33N 39°15' E 003°30'1110.6
2014-Apr-15 05:34N 39°04' E 003°26'3210.4
2014-Apr-15 02:30N 38°33' E 003°17'  

Dump ship's entire track history

sailing weather and tide predictions

Barhom II — 5IM534 — position and weather